createdAt,value
2023-04-15T00:01:20.113Z,8.50
2023-04-15T00:04:11.163Z,10.60
2023-04-15T00:07:03.018Z,9.50
2023-04-15T00:09:55.265Z,9.60
2023-04-15T00:12:45.886Z,8.90
2023-04-15T00:15:37.296Z,9.50
2023-04-15T00:18:29.621Z,8.60
2023-04-15T00:21:20.208Z,10.00
2023-04-15T00:24:10.620Z,9.30
2023-04-15T00:27:01.749Z,10.70
2023-04-15T00:29:52.739Z,8.40
2023-04-15T00:32:43.490Z,6.10
2023-04-15T00:35:34.380Z,10.50
2023-04-15T00:38:25.291Z,8.30
2023-04-15T00:41:16.540Z,9.60
2023-04-15T00:44:07.309Z,8.10
2023-04-15T00:46:57.893Z,10.50
2023-04-15T00:49:48.501Z,7.60
2023-04-15T00:52:39.094Z,9.80
2023-04-15T00:55:29.435Z,8.50
2023-04-15T00:58:20.379Z,8.10
2023-04-15T01:01:11.574Z,8.10
2023-04-15T01:04:02.476Z,9.10
2023-04-15T01:06:53.339Z,10.10
2023-04-15T01:09:44.120Z,8.00
2023-04-15T01:12:35.285Z,11.40
2023-04-15T01:15:25.930Z,9.00
2023-04-15T01:18:16.734Z,8.70
2023-04-15T01:21:08.079Z,8.90
2023-04-15T01:23:59.459Z,8.20
2023-04-15T01:26:50.469Z,8.80
2023-04-15T01:29:42.067Z,8.50
2023-04-15T01:32:32.319Z,8.20
2023-04-15T01:35:22.864Z,8.40
2023-04-15T01:38:15.500Z,8.60
2023-04-15T01:41:07.721Z,8.60
2023-04-15T01:43:58.116Z,9.20
2023-04-15T01:46:49.598Z,8.20
2023-04-15T01:49:40.107Z,10.40
2023-04-15T01:52:30.624Z,8.60
2023-04-15T01:55:21.314Z,8.60
2023-04-15T01:58:11.779Z,8.90
2023-04-15T02:01:04.113Z,9.20
2023-04-15T02:03:55.481Z,8.40
2023-04-15T02:06:46.153Z,9.00
2023-04-15T02:09:38.837Z,9.10
2023-04-15T02:12:31.804Z,10.10
2023-04-15T02:15:22.419Z,9.30
2023-04-15T02:18:13.634Z,11.70
2023-04-15T02:21:06.124Z,12.00
2023-04-15T02:23:57.230Z,10.90
2023-04-15T02:26:47.783Z,10.70
2023-04-15T02:29:39.445Z,9.10
2023-04-15T02:32:32.392Z,9.80
2023-04-15T02:35:25.891Z,9.20
2023-04-15T02:38:18.072Z,10.80
2023-04-15T02:41:08.757Z,11.70
2023-04-15T02:43:59.562Z,10.80
2023-04-15T02:46:52.633Z,9.00
2023-04-15T02:49:45.133Z,9.20
2023-04-15T02:52:35.825Z,8.50
2023-04-15T02:55:26.440Z,9.00
2023-04-15T02:58:17.144Z,8.70
2023-04-15T03:01:08.938Z,9.10
2023-04-15T03:03:59.836Z,8.60
2023-04-15T03:06:50.563Z,8.50
2023-04-15T03:09:41.476Z,9.30
2023-04-15T03:12:32.051Z,9.30
2023-04-15T03:15:23.501Z,8.80
2023-04-15T03:18:15.713Z,8.80
2023-04-15T03:21:07.409Z,9.20
2023-04-15T03:23:59.518Z,9.10
2023-04-15T03:26:50.254Z,9.00
2023-04-15T03:29:41.239Z,8.90
2023-04-15T03:32:32.517Z,8.70
2023-04-15T03:35:23.297Z,9.30
2023-04-15T03:38:13.929Z,8.90
2023-04-15T03:41:04.355Z,8.60
2023-04-15T03:43:55.743Z,8.60
2023-04-15T03:46:46.284Z,8.50
2023-04-15T03:49:36.816Z,8.70
2023-04-15T03:52:27.443Z,8.70
2023-04-15T03:55:18.098Z,6.50
2023-04-15T03:58:09.591Z,8.00
2023-04-15T04:00:59.968Z,8.10
2023-04-15T04:03:50.607Z,8.30
2023-04-15T04:06:41.227Z,7.60
2023-04-15T04:09:31.804Z,7.60
2023-04-15T04:12:22.493Z,7.70
2023-04-15T04:15:14.032Z,7.60
2023-04-15T04:18:04.642Z,7.90
2023-04-15T04:20:55.478Z,7.90
2023-04-15T04:23:45.800Z,8.10
2023-04-15T04:26:36.536Z,7.80
2023-04-15T04:29:27.056Z,7.80
2023-04-15T04:32:17.666Z,7.50
2023-04-15T04:35:08.942Z,7.40
2023-04-15T04:38:00.312Z,7.30
2023-04-15T04:40:51.330Z,8.10
2023-04-15T04:43:42.470Z,7.00
2023-04-15T04:46:33.110Z,7.60
2023-04-15T04:49:23.487Z,7.60
2023-04-15T04:52:14.014Z,7.90
2023-04-15T04:55:04.488Z,6.90
2023-04-15T04:57:55.233Z,7.20
2023-04-15T05:00:46.051Z,6.70
2023-04-15T05:03:36.991Z,6.90
2023-04-15T05:06:27.795Z,7.00
2023-04-15T05:09:18.350Z,6.40
2023-04-15T05:12:15.048Z,6.60
2023-04-15T05:15:07.284Z,7.20
2023-04-15T05:17:57.934Z,6.90
2023-04-15T05:20:50.162Z,6.10
2023-04-15T05:23:41.107Z,6.50
2023-04-15T05:26:31.677Z,5.70
2023-04-15T05:29:22.816Z,5.20
2023-04-15T05:32:13.325Z,5.30
2023-04-15T05:35:03.631Z,5.50
2023-04-15T05:37:54.111Z,5.40
2023-04-15T05:40:45.174Z,5.40
2023-04-15T05:43:35.596Z,5.90
2023-04-15T05:46:26.560Z,6.10
2023-04-15T05:49:17.043Z,6.10
2023-04-15T05:52:07.556Z,6.50
2023-04-15T05:54:58.257Z,6.50
2023-04-15T05:57:48.697Z,6.80
2023-04-15T06:00:39.393Z,6.20
2023-04-15T06:03:30.717Z,6.40
2023-04-15T06:06:21.901Z,6.50
2023-04-15T06:09:12.377Z,6.60
2023-04-15T06:12:03.069Z,7.20
2023-04-15T06:14:54.000Z,8.00
2023-04-15T06:17:44.698Z,6.90
2023-04-15T06:20:35.386Z,7.00
2023-04-15T06:23:26.951Z,6.90
2023-04-15T06:26:18.626Z,6.80
2023-04-15T06:29:09.249Z,6.80
2023-04-15T06:31:59.753Z,6.70
2023-04-15T06:34:50.131Z,6.30
2023-04-15T06:37:40.754Z,6.00
2023-04-15T06:40:31.466Z,5.80
2023-04-15T06:43:22.456Z,6.80
2023-04-15T06:46:13.116Z,6.40
2023-04-15T06:49:04.013Z,6.20
2023-04-15T06:51:54.710Z,6.40
2023-04-15T06:54:45.358Z,6.40
2023-04-15T06:57:36.183Z,6.70
2023-04-15T07:00:28.776Z,6.30
2023-04-15T07:03:19.268Z,6.40
2023-04-15T07:06:10.500Z,6.40
2023-04-15T07:09:01.940Z,6.90
2023-04-15T07:11:53.573Z,7.90
2023-04-15T07:14:44.661Z,6.40
2023-04-15T07:17:43.431Z,6.40
2023-04-15T07:20:34.290Z,7.50
2023-04-15T07:23:26.182Z,6.40
2023-04-15T07:26:16.973Z,6.50
2023-04-15T07:29:08.556Z,6.90
2023-04-15T07:31:59.609Z,6.90
2023-04-15T07:34:50.566Z,6.50
2023-04-15T07:37:44.904Z,6.80
2023-04-15T07:40:35.562Z,6.90
2023-04-15T07:43:25.899Z,7.60
2023-04-15T07:46:24.374Z,8.20
2023-04-15T07:49:15.748Z,7.10
2023-04-15T07:52:07.308Z,8.40
2023-04-15T07:54:57.650Z,7.80
2023-04-15T07:57:48.591Z,7.60
2023-04-15T08:00:39.562Z,7.90
2023-04-15T08:03:30.563Z,9.20
2023-04-15T08:06:21.245Z,8.20
2023-04-15T08:09:12.901Z,8.60
2023-04-15T08:12:03.333Z,8.40
2023-04-15T08:14:54.302Z,8.90
2023-04-15T08:18:05.277Z,9.00
2023-04-15T08:20:56.050Z,9.20
2023-04-15T08:23:52.388Z,9.60
2023-04-15T08:26:44.227Z,9.60
2023-04-15T08:29:35.984Z,11.50
2023-04-15T08:32:26.821Z,10.60
2023-04-15T08:35:18.282Z,11.50
2023-04-15T08:38:08.710Z,15.10
2023-04-15T08:40:59.687Z,11.20
2023-04-15T08:43:55.036Z,11.90
2023-04-15T08:46:45.886Z,11.50
2023-04-15T08:49:36.776Z,11.40
2023-04-15T08:52:28.379Z,11.10
2023-04-15T08:55:18.968Z,10.80
2023-04-15T08:58:10.752Z,14.80
2023-04-15T09:01:01.827Z,11.90
2023-04-15T09:03:54.686Z,11.50
2023-04-15T09:06:46.166Z,12.90
2023-04-15T09:09:37.563Z,11.30
2023-04-15T09:12:28.678Z,11.00
2023-04-15T09:15:19.444Z,11.10
2023-04-15T09:18:10.619Z,10.80
2023-04-15T09:21:09.110Z,12.90
2023-04-15T09:24:02.629Z,11.50
2023-04-15T09:26:56.660Z,10.60
2023-04-15T09:29:52.559Z,10.50
2023-04-15T09:32:52.843Z,10.90
2023-04-15T09:35:43.350Z,10.50
2023-04-15T09:38:33.787Z,12.60
2023-04-15T09:41:24.397Z,10.20
2023-04-15T09:44:26.292Z,11.30
2023-04-15T09:47:31.504Z,9.60
2023-04-15T09:50:22.627Z,9.80
2023-04-15T09:53:14.006Z,11.60
2023-04-15T09:56:07.953Z,10.00
2023-04-15T09:59:00.301Z,9.20
2023-04-15T10:01:50.680Z,10.10
2023-04-15T10:04:42.953Z,10.10
2023-04-15T10:07:33.456Z,9.50
2023-04-15T10:10:24.292Z,9.30
2023-04-15T10:13:14.701Z,12.20
2023-04-15T10:16:08.335Z,7.90
2023-04-15T10:18:59.480Z,9.10
2023-04-15T10:21:50.249Z,9.10
2023-04-15T10:24:47.347Z,9.20
2023-04-15T10:27:40.259Z,9.00
2023-04-15T10:30:31.780Z,7.80
2023-04-15T10:33:32.052Z,7.50
2023-04-15T10:36:23.598Z,8.00
2023-04-15T10:39:44.489Z,7.90
2023-04-15T10:42:39.804Z,7.80
2023-04-15T10:45:34.523Z,8.10
2023-04-15T10:48:26.418Z,8.70
2023-04-15T10:51:19.136Z,8.40
2023-04-15T10:54:14.593Z,8.10
2023-04-15T10:57:16.919Z,8.00
2023-04-15T11:00:14.818Z,8.20
2023-04-15T11:03:09.804Z,8.60
2023-04-15T11:06:01.412Z,9.00
2023-04-15T11:09:02.190Z,10.40
2023-04-15T11:12:12.105Z,9.30
2023-04-15T11:15:02.830Z,7.60
2023-04-15T11:17:53.722Z,8.20
2023-04-15T11:20:45.058Z,9.00
2023-04-15T11:23:37.621Z,6.10
2023-04-15T11:26:30.030Z,4.70
2023-04-15T11:29:21.502Z,3.80
2023-04-15T11:32:12.991Z,2.50
2023-04-15T11:35:03.602Z,2.40
2023-04-15T11:37:54.697Z,2.00
2023-04-15T11:40:47.126Z,1.70
2023-04-15T11:43:37.911Z,2.50
2023-04-15T11:46:32.753Z,2.70
2023-04-15T11:49:35.017Z,6.00
2023-04-15T11:52:28.179Z,3.60
2023-04-15T11:55:19.031Z,3.20
2023-04-15T11:58:15.092Z,2.00
2023-04-15T12:01:10.394Z,1.50
2023-04-15T12:04:03.122Z,4.10
2023-04-15T12:06:54.286Z,3.40
2023-04-15T12:09:45.594Z,4.20
2023-04-15T12:12:36.488Z,3.80
2023-04-15T12:15:27.352Z,4.80
2023-04-15T12:18:21.421Z,3.30
2023-04-15T12:21:15.518Z,3.80
2023-04-15T12:24:10.024Z,7.90
2023-04-15T12:27:04.927Z,5.60
2023-04-15T12:30:06.020Z,5.80
2023-04-15T12:32:56.731Z,5.10
2023-04-15T12:35:47.510Z,6.80
2023-04-15T12:38:37.941Z,4.40
2023-04-15T12:41:28.554Z,4.60
2023-04-15T12:44:19.081Z,5.00
2023-04-15T12:47:10.721Z,3.70
2023-04-15T12:50:01.435Z,5.40
2023-04-15T12:52:52.095Z,3.80
2023-04-15T12:55:42.892Z,5.40
2023-04-15T12:58:33.453Z,3.50
2023-04-15T13:01:25.387Z,2.80
2023-04-15T13:04:17.197Z,2.80
2023-04-15T13:07:10.137Z,2.80
2023-04-15T13:10:00.706Z,3.10
2023-04-15T13:12:53.707Z,3.10
2023-04-15T13:15:45.958Z,3.40
2023-04-15T13:18:38.758Z,3.80
2023-04-15T13:21:29.291Z,4.00
2023-04-15T13:24:22.807Z,5.00
2023-04-15T13:27:13.353Z,3.70
2023-04-15T13:30:04.017Z,4.10
2023-04-15T13:32:55.007Z,2.90
2023-04-15T13:35:45.479Z,3.40
2023-04-15T13:38:36.433Z,5.50
2023-04-15T13:41:27.413Z,5.60
2023-04-15T13:44:18.475Z,4.90
2023-04-15T13:47:13.113Z,4.30
2023-04-15T13:50:03.560Z,3.80
2023-04-15T13:52:54.258Z,3.20
2023-04-15T13:55:44.943Z,4.10
2023-04-15T13:58:35.753Z,5.00
2023-04-15T14:01:26.463Z,5.20
2023-04-15T14:04:17.266Z,5.70
2023-04-15T14:07:08.977Z,5.50
2023-04-15T14:10:00.386Z,4.20
2023-04-15T14:12:51.472Z,4.50
2023-04-15T14:15:42.432Z,4.60
2023-04-15T14:18:33.628Z,4.30
2023-04-15T14:21:23.991Z,3.60
2023-04-15T14:24:14.990Z,4.50
2023-04-15T14:27:08.783Z,3.90
2023-04-15T14:30:00.155Z,3.60
2023-04-15T14:32:50.641Z,4.50
2023-04-15T14:35:41.020Z,5.90
2023-04-15T14:38:33.826Z,4.60
2023-04-15T14:41:24.665Z,7.50
2023-04-15T14:44:15.137Z,13.10
2023-04-15T14:47:05.651Z,5.90
2023-04-15T14:49:56.434Z,5.70
2023-04-15T14:52:46.909Z,6.30
2023-04-15T14:55:37.289Z,8.20
2023-04-15T14:58:27.771Z,6.50
2023-04-15T15:01:18.410Z,7.20
2023-04-15T15:04:08.885Z,7.70
2023-04-15T15:06:59.632Z,7.70
2023-04-15T15:09:50.715Z,8.40
2023-04-15T15:12:41.125Z,11.00
2023-04-15T15:15:31.627Z,10.40
2023-04-15T15:18:22.307Z,11.50
2023-04-15T15:21:13.506Z,14.40
2023-04-15T15:24:04.391Z,15.00
2023-04-15T15:26:54.835Z,12.60
2023-04-15T15:29:45.224Z,12.00
2023-04-15T15:32:35.929Z,10.70
2023-04-15T15:35:29.029Z,10.70
2023-04-15T15:38:19.826Z,10.20
2023-04-15T15:41:12.485Z,9.70
2023-04-15T15:44:03.023Z,8.60
2023-04-15T15:46:54.079Z,9.00
2023-04-15T15:49:44.542Z,10.00
2023-04-15T15:52:35.183Z,12.20
2023-04-15T15:55:27.363Z,9.60
2023-04-15T15:58:18.407Z,11.70
2023-04-15T16:01:09.538Z,11.10
2023-04-15T16:04:00.843Z,10.30
2023-04-15T16:06:52.164Z,11.00
2023-04-15T16:09:43.791Z,10.10
2023-04-15T16:12:35.445Z,13.70
2023-04-15T16:15:27.652Z,13.20
2023-04-15T16:18:18.157Z,7.40
2023-04-15T16:21:09.250Z,7.30
2023-04-15T16:24:00.687Z,7.20
2023-04-15T16:26:51.372Z,7.50
2023-04-15T16:29:42.184Z,8.50
2023-04-15T16:32:33.142Z,11.70
2023-04-15T16:35:24.007Z,10.40
2023-04-15T16:38:15.197Z,10.00
2023-04-15T16:41:06.928Z,11.60
2023-04-15T16:44:00.270Z,13.30
2023-04-15T16:46:52.703Z,11.90
2023-04-15T16:50:07.919Z,10.80
2023-04-15T16:53:00.296Z,10.40
2023-04-15T16:55:51.001Z,10.60
2023-04-15T16:58:42.020Z,10.10
2023-04-15T17:01:32.785Z,10.50
2023-04-15T17:04:23.859Z,11.20
2023-04-15T17:07:14.801Z,11.30
2023-04-15T17:10:06.334Z,11.10
2023-04-15T17:12:57.995Z,11.90
2023-04-15T17:15:51.590Z,11.30
2023-04-15T17:18:42.756Z,11.20
2023-04-15T17:21:33.420Z,11.70
2023-04-15T17:24:23.561Z,10.90
2023-04-15T17:27:14.087Z,11.60
2023-04-15T17:30:04.773Z,11.60
2023-04-15T17:32:55.706Z,10.20
2023-04-15T17:35:46.235Z,10.50
2023-04-15T17:38:36.666Z,11.20
2023-04-15T17:41:27.106Z,11.20
2023-04-15T17:44:17.549Z,10.70
2023-04-15T17:47:08.068Z,11.40
2023-04-15T17:50:08.587Z,11.70
2023-04-15T17:52:59.412Z,10.30
2023-04-15T17:55:50.494Z,12.10
2023-04-15T17:58:41.345Z,13.50
2023-04-15T18:01:32.142Z,10.80
2023-04-15T18:04:26.502Z,11.40
2023-04-15T18:07:18.269Z,10.40
2023-04-15T18:10:11.055Z,8.00
2023-04-15T18:13:03.524Z,6.90
2023-04-15T18:15:54.208Z,8.20
2023-04-15T18:18:44.780Z,6.80
2023-04-15T18:21:36.177Z,8.40
2023-04-15T18:24:27.252Z,9.30
2023-04-15T18:27:17.673Z,13.80
2023-04-15T18:30:10.179Z,13.70
2023-04-15T18:33:05.679Z,14.30
2023-04-15T18:35:57.749Z,13.10
2023-04-15T18:38:49.929Z,13.70
2023-04-15T18:41:51.575Z,11.70
2023-04-15T18:47:33.347Z,10.10
2023-04-15T18:50:24.219Z,10.30
2023-04-15T18:53:17.777Z,9.60
2023-04-15T18:56:12.047Z,8.80
2023-04-15T18:59:29.362Z,8.90
2023-04-15T19:02:19.996Z,9.50
2023-04-15T19:05:12.338Z,8.30
2023-04-15T19:08:06.674Z,8.30
2023-04-15T19:11:03.903Z,6.60
2023-04-15T19:13:54.747Z,5.70
2023-04-15T19:16:48.469Z,5.20
2023-04-15T19:19:43.358Z,5.00
2023-04-15T19:22:37.585Z,7.70
2023-04-15T19:25:29.008Z,4.90
2023-04-15T19:28:19.875Z,3.60
2023-04-15T19:31:11.358Z,3.10
2023-04-15T19:34:02.377Z,2.90
2023-04-15T19:36:53.391Z,3.80
2023-04-15T19:39:44.537Z,2.50
2023-04-15T19:42:39.644Z,3.00
2023-04-15T19:45:32.388Z,2.50
2023-04-15T19:48:25.780Z,2.70
2023-04-15T19:51:16.404Z,3.00
2023-04-15T19:54:09.994Z,3.30
2023-04-15T19:57:01.728Z,3.20
2023-04-15T19:59:52.812Z,3.10
2023-04-15T20:02:44.175Z,2.90
2023-04-15T20:06:03.075Z,3.00
2023-04-15T20:13:35.179Z,2.90
2023-04-15T20:16:27.877Z,2.70
2023-04-15T20:19:19.137Z,2.30
2023-04-15T20:22:09.490Z,2.60
2023-04-15T20:25:00.951Z,2.70
2023-04-15T20:27:52.709Z,2.40
2023-04-15T20:30:46.646Z,1.90
2023-04-15T20:33:37.369Z,3.10
2023-04-15T20:36:28.343Z,2.40
2023-04-15T20:39:19.053Z,2.60
2023-04-15T20:42:10.616Z,2.90
2023-04-15T20:45:02.292Z,3.00
2023-04-15T20:47:56.224Z,2.90
2023-04-15T20:50:47.727Z,4.00
2023-04-15T20:53:42.179Z,2.60
2023-04-15T20:56:39.935Z,2.20
2023-04-15T20:59:34.953Z,2.50
2023-04-15T21:02:26.151Z,3.20
2023-04-15T21:05:17.109Z,2.20
2023-04-15T21:08:08.064Z,4.90
2023-04-15T21:10:58.881Z,4.20
2023-04-15T21:13:50.869Z,4.40
2023-04-15T21:16:41.604Z,3.80
2023-04-15T21:19:31.895Z,2.50
2023-04-15T21:22:22.406Z,5.70
2023-04-15T21:25:13.449Z,3.70
2023-04-15T21:28:04.103Z,3.50
2023-04-15T21:30:55.232Z,4.30
2023-04-15T21:33:45.594Z,2.90
2023-04-15T21:36:36.176Z,4.20
2023-04-15T21:39:26.597Z,3.80
2023-04-15T21:42:16.985Z,3.30
2023-04-15T21:45:11.633Z,3.50
2023-04-15T21:48:07.837Z,3.50
2023-04-15T21:51:01.685Z,3.60
2023-04-15T21:53:52.791Z,4.60
2023-04-15T21:56:43.730Z,5.70
2023-04-15T21:59:34.763Z,5.50
2023-04-15T22:02:26.106Z,6.40
2023-04-15T22:05:17.101Z,5.80
2023-04-15T22:08:08.298Z,5.80
2023-04-15T22:10:58.655Z,6.30
2023-04-15T22:13:49.142Z,5.80
2023-04-15T22:16:39.729Z,6.20
2023-04-15T22:19:29.958Z,6.30
2023-04-15T22:22:20.817Z,6.10
2023-04-15T22:25:17.207Z,5.70
2023-04-15T22:28:08.519Z,5.90
2023-04-15T22:30:59.274Z,6.40
2023-04-15T22:33:50.538Z,6.40
2023-04-15T22:36:41.152Z,8.00
2023-04-15T22:39:31.616Z,6.60
2023-04-15T22:42:22.223Z,8.00
2023-04-15T22:45:13.960Z,6.70
2023-04-15T22:48:05.557Z,6.50
2023-04-15T22:50:56.363Z,6.30
2023-04-15T22:53:46.980Z,6.20
2023-04-15T22:56:37.578Z,6.50
2023-04-15T22:59:28.263Z,6.50
2023-04-15T23:02:19.290Z,7.70
2023-04-15T23:05:12.047Z,7.80
2023-04-15T23:08:03.926Z,7.10
2023-04-15T23:10:54.278Z,7.50
2023-04-15T23:13:44.574Z,7.70
2023-04-15T23:16:35.182Z,7.90
2023-04-15T23:19:25.419Z,8.20
2023-04-15T23:22:15.740Z,8.50
2023-04-15T23:25:06.638Z,10.20
2023-04-15T23:27:57.313Z,10.40
2023-04-15T23:30:47.939Z,9.20
2023-04-15T23:33:38.885Z,9.20
2023-04-15T23:36:29.884Z,10.50
2023-04-15T23:39:20.824Z,10.70
2023-04-15T23:42:11.624Z,11.30
2023-04-15T23:45:02.298Z,11.40
2023-04-15T23:47:52.819Z,11.40
2023-04-15T23:50:43.437Z,11.00
2023-04-15T23:53:33.803Z,12.00
2023-04-15T23:56:24.379Z,11.60
2023-04-15T23:59:15.583Z,11.80
